Airfield :
LOGIN :

Register | Disclaimer

   EN    FR    IT 

 










Legend :    VFR   Marginal VFR   IFR   Intensive IFR   Very Intensive IFR
Visi :
Ceiling :
>= 8 km
>= 3000ft
5 to 8 km
1000 to 3000 ft
1500m to 5 km
500 to 1000 ft
800 to 1500m
200 to 500 ft
< 800m
< 200 ft
Symbols :   Thunderstorms  Fog  Heavy snow  Heavy precipitations  Wind > 20 kt
SIGMETs :     Misc.  Thunderstorms  Icing  Turbulence  Mountain Waves  Volcanic Ashes






- Airport Elevation : 56 ft
- IATA code : BZR


LFMU - Beziers / Vias

CURRENT METAR :
  • 101230Z AUTO 33010KT 9999 // NSC 12/M04 Q1025

EXPIRED METARs :
  • 101200Z AUTO 31010KT 9999 // NSC 12/M03 Q1025
  • 101130Z AUTO 34012KT 9000 // NSC 11/M03 Q1026
  • 101100Z AUTO 33012KT 9000 // NSC 11/M03 Q1026
  • 101030Z AUTO 33010KT 9999 // NSC 11/M02 Q1026
  • 101000Z AUTO 31010KT 9999 // FEW008 10/M02 Q1027

TAF AMD TAF LFMU
Valid from the 10 at 04:00 until the 11 at 03:00 UTC


100416Z 1004/1103 32010G20KT CAVOK
TEMPO 1004/1007 33015G30KT
BECMG 1020/1022 02008KT
ATIS : +33 4 67 90 88 88



MET'MAP, your aeronautical weather chart ! - Copyright ORBIFLY December 2007 - Disclaimer

ORBIFLY MET'MAP TEAM :

Programming & Development : Alexandra Zaïnal
Concept & original design : Baudouin d'Aumeries
Assistance for programming : Marc-Olivier Méhu
Technical & hardware support : Manuel Goepfert

Contact : metmap@orbifly.com




SOURCES & CREDITS :

   NOAA